sensor_id;sensor_type;location;lat;lon;timestamp;P1;durP1;ratioP1;P2;durP2;ratioP2
22336;SDS011;14992;50.844;4.418;2022-07-05T00:01:44;6.40;;;2.30;;
22336;SDS011;14992;50.844;4.418;2022-07-05T00:04:39;7.35;;;2.35;;
22336;SDS011;14992;50.844;4.418;2022-07-05T00:07:27;5.25;;;2.53;;
22336;SDS011;14992;50.844;4.418;2022-07-05T00:10:24;6.28;;;2.40;;
22336;SDS011;14992;50.844;4.418;2022-07-05T00:13:06;6.82;;;2.92;;
22336;SDS011;14992;50.844;4.418;2022-07-05T00:16:01;7.88;;;2.38;;
22336;SDS011;14992;50.844;4.418;2022-07-05T00:18:57;9.40;;;2.65;;
22336;SDS011;14992;50.844;4.418;2022-07-05T00:21:39;5.45;;;2.40;;
22336;SDS011;14992;50.844;4.418;2022-07-05T00:24:34;8.00;;;2.53;;
22336;SDS011;14992;50.844;4.418;2022-07-05T00:27:17;8.93;;;2.60;;
22336;SDS011;14992;50.844;4.418;2022-07-05T00:30:13;8.13;;;2.72;;
22336;SDS011;14992;50.844;4.418;2022-07-05T00:32:55;7.25;;;2.67;;
22336;SDS011;14992;50.844;4.418;2022-07-05T00:35:50;5.95;;;2.78;;
22336;SDS011;14992;50.844;4.418;2022-07-05T00:38:45;9.50;;;2.58;;
22336;SDS011;14992;50.844;4.418;2022-07-05T00:41:27;7.47;;;2.53;;
22336;SDS011;14992;50.844;4.418;2022-07-05T00:44:29;8.15;;;2.70;;
22336;SDS011;14992;50.844;4.418;2022-07-05T00:47:05;6.53;;;2.63;;
22336;SDS011;14992;50.844;4.418;2022-07-05T00:50:02;5.68;;;2.42;;
22336;SDS011;14992;50.844;4.418;2022-07-05T00:52:44;7.53;;;2.70;;
22336;SDS011;14992;50.844;4.418;2022-07-05T00:55:39;3.40;;;1.70;;
22336;SDS011;14992;50.844;4.418;2022-07-05T00:58:22;7.07;;;2.50;;
22336;SDS011;14992;50.844;4.418;2022-07-05T01:01:12;6.53;;;2.65;;
22336;SDS011;14992;50.844;4.418;2022-07-05T01:04:07;8.75;;;2.40;;
22336;SDS011;14992;50.844;4.418;2022-07-05T01:06:52;7.40;;;2.50;;
22336;SDS011;14992;50.844;4.418;2022-07-05T01:09:49;5.05;;;2.45;;
22336;SDS011;14992;50.844;4.418;2022-07-05T01:12:31;6.72;;;2.53;;
22336;SDS011;14992;50.844;4.418;2022-07-05T01:15:26;6.15;;;2.40;;
22336;SDS011;14992;50.844;4.418;2022-07-05T01:18:10;4.72;;;2.20;;
22336;SDS011;14992;50.844;4.418;2022-07-05T01:21:05;10.40;;;2.88;;
22336;SDS011;14992;50.844;4.418;2022-07-05T01:23:49;7.07;;;2.58;;
22336;SDS011;14992;50.844;4.418;2022-07-05T01:26:38;9.13;;;2.50;;
22336;SDS011;14992;50.844;4.418;2022-07-05T01:29:20;6.07;;;2.83;;
22336;SDS011;14992;50.844;4.418;2022-07-05T01:32:09;6.55;;;2.20;;
22336;SDS011;14992;50.844;4.418;2022-07-05T01:35:05;7.18;;;2.63;;
22336;SDS011;14992;50.844;4.418;2022-07-05T01:38:02;11.23;;;2.35;;
22336;SDS011;14992;50.844;4.418;2022-07-05T01:40:59;8.10;;;2.78;;
22336;SDS011;14992;50.844;4.418;2022-07-05T01:43:47;6.10;;;2.35;;
22336;SDS011;14992;50.844;4.418;2022-07-05T01:46:29;9.75;;;2.75;;
22336;SDS011;14992;50.844;4.418;2022-07-05T01:49:18;8.40;;;2.47;;
22336;SDS011;14992;50.844;4.418;2022-07-05T01:52:06;5.72;;;2.65;;
22336;SDS011;14992;50.844;4.418;2022-07-05T01:54:55;6.13;;;2.08;;
22336;SDS011;14992;50.844;4.418;2022-07-05T01:57:42;8.50;;;2.65;;
22336;SDS011;14992;50.844;4.418;2022-07-05T02:00:41;5.78;;;2.47;;
22336;SDS011;14992;50.844;4.418;2022-07-05T02:03:26;4.65;;;2.47;;
22336;SDS011;14992;50.844;4.418;2022-07-05T02:06:37;5.13;;;2.30;;
22336;SDS011;14992;50.844;4.418;2022-07-05T02:09:19;6.80;;;2.88;;
22336;SDS011;14992;50.844;4.418;2022-07-05T02:12:08;6.25;;;2.42;;
22336;SDS011;14992;50.844;4.418;2022-07-05T02:15:05;5.47;;;2.50;;
22336;SDS011;14992;50.844;4.418;2022-07-05T02:17:47;5.65;;;2.65;;
22336;SDS011;14992;50.844;4.418;2022-07-05T02:20:45;5.75;;;2.13;;
22336;SDS011;14992;50.844;4.418;2022-07-05T02:23:27;7.70;;;2.65;;
22336;SDS011;14992;50.844;4.418;2022-07-05T02:26:23;5.32;;;2.22;;
22336;SDS011;14992;50.844;4.418;2022-07-05T02:29:19;8.52;;;2.58;;
22336;SDS011;14992;50.844;4.418;2022-07-05T02:32:03;7.10;;;2.25;;
22336;SDS011;14992;50.844;4.418;2022-07-05T02:34:59;9.05;;;2.88;;
22336;SDS011;14992;50.844;4.418;2022-07-05T02:37:49;4.50;;;2.42;;
22336;SDS011;14992;50.844;4.418;2022-07-05T02:40:43;4.57;;;2.15;;
22336;SDS011;14992;50.844;4.418;2022-07-05T02:43:32;6.63;;;2.38;;
22336;SDS011;14992;50.844;4.418;2022-07-05T02:46:16;7.60;;;2.58;;
22336;SDS011;14992;50.844;4.418;2022-07-05T02:49:09;7.30;;;2.47;;
22336;SDS011;14992;50.844;4.418;2022-07-05T02:51:52;7.57;;;2.70;;
22336;SDS011;14992;50.844;4.418;2022-07-05T02:54:39;8.38;;;3.00;;
22336;SDS011;14992;50.844;4.418;2022-07-05T02:57:21;9.75;;;2.50;;
22336;SDS011;14992;50.844;4.418;2022-07-05T03:02:52;5.93;;;2.63;;
22336;SDS011;14992;50.844;4.418;2022-07-05T03:05:50;5.35;;;2.55;;
22336;SDS011;14992;50.844;4.418;2022-07-05T03:08:40;8.75;;;2.95;;
22336;SDS011;14992;50.844;4.418;2022-07-05T03:11:22;8.57;;;3.50;;
22336;SDS011;14992;50.844;4.418;2022-07-05T03:14:12;8.63;;;2.58;;
22336;SDS011;14992;50.844;4.418;2022-07-05T03:16:54;6.25;;;2.42;;
22336;SDS011;14992;50.844;4.418;2022-07-05T03:19:42;6.72;;;2.90;;
22336;SDS011;14992;50.844;4.418;2022-07-05T03:22:27;7.38;;;3.08;;
22336;SDS011;14992;50.844;4.418;2022-07-05T03:25:14;7.05;;;2.88;;
22336;SDS011;14992;50.844;4.418;2022-07-05T03:27:57;4.90;;;3.00;;
22336;SDS011;14992;50.844;4.418;2022-07-05T03:30:47;8.20;;;5.07;;
22336;SDS011;14992;50.844;4.418;2022-07-05T03:33:46;8.90;;;3.40;;
22336;SDS011;14992;50.844;4.418;2022-07-05T03:36:33;8.45;;;3.30;;
22336;SDS011;14992;50.844;4.418;2022-07-05T03:39:30;7.60;;;3.35;;
22336;SDS011;14992;50.844;4.418;2022-07-05T03:42:05;5.82;;;3.00;;
22336;SDS011;14992;50.844;4.418;2022-07-05T03:45:01;6.05;;;2.42;;
22336;SDS011;14992;50.844;4.418;2022-07-05T03:47:42;6.43;;;2.95;;
22336;SDS011;14992;50.844;4.418;2022-07-05T03:50:51;6.65;;;2.90;;
22336;SDS011;14992;50.844;4.418;2022-07-05T03:53:32;6.57;;;2.92;;
22336;SDS011;14992;50.844;4.418;2022-07-05T03:56:23;7.97;;;3.30;;
22336;SDS011;14992;50.844;4.418;2022-07-05T03:59:20;6.38;;;3.05;;
22336;SDS011;14992;50.844;4.418;2022-07-05T04:02:02;8.35;;;3.50;;
22336;SDS011;14992;50.844;4.418;2022-07-05T04:04:57;7.15;;;3.00;;
22336;SDS011;14992;50.844;4.418;2022-07-05T04:07:32;8.23;;;3.55;;
22336;SDS011;14992;50.844;4.418;2022-07-05T04:10:33;8.63;;;3.08;;
22336;SDS011;14992;50.844;4.418;2022-07-05T04:16:07;6.32;;;3.22;;
22336;SDS011;14992;50.844;4.418;2022-07-05T04:18:49;7.15;;;3.45;;
22336;SDS011;14992;50.844;4.418;2022-07-05T04:21:39;6.90;;;3.50;;
22336;SDS011;14992;50.844;4.418;2022-07-05T04:24:21;11.00;;;3.90;;
22336;SDS011;14992;50.844;4.418;2022-07-05T04:27:09;9.85;;;3.75;;
22336;SDS011;14992;50.844;4.418;2022-07-05T04:30:08;7.90;;;3.25;;
22336;SDS011;14992;50.844;4.418;2022-07-05T04:32:53;9.93;;;4.18;;
22336;SDS011;14992;50.844;4.418;2022-07-05T04:35:51;7.53;;;4.28;;
22336;SDS011;14992;50.844;4.418;2022-07-05T04:38:46;8.57;;;3.85;;
22336;SDS011;14992;50.844;4.418;2022-07-05T04:41:31;8.50;;;4.30;;
22336;SDS011;14992;50.844;4.418;2022-07-05T04:44:18;9.27;;;4.07;;
22336;SDS011;14992;50.844;4.418;2022-07-05T04:47:01;9.43;;;4.53;;
22336;SDS011;14992;50.844;4.418;2022-07-05T04:49:49;8.65;;;4.28;;
22336;SDS011;14992;50.844;4.418;2022-07-05T04:52:32;10.10;;;4.28;;
22336;SDS011;14992;50.844;4.418;2022-07-05T04:55:20;8.23;;;3.67;;
22336;SDS011;14992;50.844;4.418;2022-07-05T04:58:02;11.45;;;3.67;;
22336;SDS011;14992;50.844;4.418;2022-07-05T05:00:51;8.00;;;3.20;;
22336;SDS011;14992;50.844;4.418;2022-07-05T05:03:47;10.55;;;3.20;;
22336;SDS011;14992;50.844;4.418;2022-07-05T05:06:22;8.32;;;3.45;;
22336;SDS011;14992;50.844;4.418;2022-07-05T05:09:17;7.22;;;3.70;;
22336;SDS011;14992;50.844;4.418;2022-07-05T05:11:58;11.23;;;3.50;;
22336;SDS011;14992;50.844;4.418;2022-07-05T05:14:52;7.30;;;3.40;;
22336;SDS011;14992;50.844;4.418;2022-07-05T05:17:34;7.35;;;3.83;;
22336;SDS011;14992;50.844;4.418;2022-07-05T05:20:32;9.70;;;3.63;;
22336;SDS011;14992;50.844;4.418;2022-07-05T05:23:14;10.05;;;4.20;;
22336;SDS011;14992;50.844;4.418;2022-07-05T05:26:08;6.38;;;3.50;;
22336;SDS011;14992;50.844;4.418;2022-07-05T05:28:50;8.48;;;3.80;;
22336;SDS011;14992;50.844;4.418;2022-07-05T05:31:38;10.55;;;4.07;;
22336;SDS011;14992;50.844;4.418;2022-07-05T05:34:20;11.27;;;3.47;;
22336;SDS011;14992;50.844;4.418;2022-07-05T05:37:10;12.02;;;3.60;;
22336;SDS011;14992;50.844;4.418;2022-07-05T05:40:06;20.58;;;4.10;;
22336;SDS011;14992;50.844;4.418;2022-07-05T05:42:48;10.35;;;3.88;;
22336;SDS011;14992;50.844;4.418;2022-07-05T05:45:37;8.75;;;3.50;;
22336;SDS011;14992;50.844;4.418;2022-07-05T05:48:19;10.60;;;4.00;;
22336;SDS011;14992;50.844;4.418;2022-07-05T05:51:07;12.05;;;3.85;;
22336;SDS011;14992;50.844;4.418;2022-07-05T05:54:04;8.02;;;3.00;;
22336;SDS011;14992;50.844;4.418;2022-07-05T05:56:46;9.38;;;3.67;;
22336;SDS011;14992;50.844;4.418;2022-07-05T05:59:41;9.52;;;3.63;;
22336;SDS011;14992;50.844;4.418;2022-07-05T06:02:22;14.05;;;4.40;;
22336;SDS011;14992;50.844;4.418;2022-07-05T06:05:17;11.82;;;4.22;;
22336;SDS011;14992;50.844;4.418;2022-07-05T06:07:59;12.73;;;3.95;;
22336;SDS011;14992;50.844;4.418;2022-07-05T06:10:55;13.40;;;4.40;;
22336;SDS011;14992;50.844;4.418;2022-07-05T06:13:38;9.23;;;4.20;;
22336;SDS011;14992;50.844;4.418;2022-07-05T06:16:27;10.05;;;4.70;;
22336;SDS011;14992;50.844;4.418;2022-07-05T06:19:08;8.30;;;3.83;;
22336;SDS011;14992;50.844;4.418;2022-07-05T06:21:55;14.25;;;4.30;;
22336;SDS011;14992;50.844;4.418;2022-07-05T06:24:43;11.45;;;3.90;;
22336;SDS011;14992;50.844;4.418;2022-07-05T06:27:47;10.27;;;4.72;;
22336;SDS011;14992;50.844;4.418;2022-07-05T06:30:44;8.43;;;4.30;;
22336;SDS011;14992;50.844;4.418;2022-07-05T06:33:26;12.13;;;3.78;;
22336;SDS011;14992;50.844;4.418;2022-07-05T06:36:22;13.40;;;4.32;;
22336;SDS011;14992;50.844;4.418;2022-07-05T06:39:17;14.30;;;3.90;;
22336;SDS011;14992;50.844;4.418;2022-07-05T06:41:58;14.90;;;3.67;;
22336;SDS011;14992;50.844;4.418;2022-07-05T06:44:55;11.85;;;3.53;;
22336;SDS011;14992;50.844;4.418;2022-07-05T06:47:44;12.63;;;5.75;;
22336;SDS011;14992;50.844;4.418;2022-07-05T06:50:39;14.38;;;4.43;;
22336;SDS011;14992;50.844;4.418;2022-07-05T06:53:22;14.15;;;3.53;;
22336;SDS011;14992;50.844;4.418;2022-07-05T06:56:17;17.90;;;4.18;;
22336;SDS011;14992;50.844;4.418;2022-07-05T06:58:58;11.65;;;4.13;;
22336;SDS011;14992;50.844;4.418;2022-07-05T07:01:49;15.13;;;4.53;;
22336;SDS011;14992;50.844;4.418;2022-07-05T07:04:51;12.20;;;4.30;;
22336;SDS011;14992;50.844;4.418;2022-07-05T07:07:48;15.93;;;4.53;;
22336;SDS011;14992;50.844;4.418;2022-07-05T07:10:47;16.98;;;5.65;;
22336;SDS011;14992;50.844;4.418;2022-07-05T07:13:29;16.75;;;4.90;;
22336;SDS011;14992;50.844;4.418;2022-07-05T07:16:18;16.17;;;4.57;;
22336;SDS011;14992;50.844;4.418;2022-07-05T07:19:14;12.15;;;4.50;;
22336;SDS011;14992;50.844;4.418;2022-07-05T07:21:56;15.60;;;4.30;;
22336;SDS011;14992;50.844;4.418;2022-07-05T07:24:51;10.82;;;3.90;;
22336;SDS011;14992;50.844;4.418;2022-07-05T07:27:40;16.05;;;4.07;;
22336;SDS011;14992;50.844;4.418;2022-07-05T07:30:36;13.63;;;4.25;;
22336;SDS011;14992;50.844;4.418;2022-07-05T07:33:11;16.80;;;4.45;;
22336;SDS011;14992;50.844;4.418;2022-07-05T07:36:24;16.25;;;4.55;;
22336;SDS011;14992;50.844;4.418;2022-07-05T07:39:20;14.52;;;4.55;;
22336;SDS011;14992;50.844;4.418;2022-07-05T07:42:00;16.83;;;4.53;;
22336;SDS011;14992;50.844;4.418;2022-07-05T07:44:49;17.10;;;4.25;;
22336;SDS011;14992;50.844;4.418;2022-07-05T07:47:30;16.50;;;3.92;;
22336;SDS011;14992;50.844;4.418;2022-07-05T07:50:19;20.23;;;5.25;;
22336;SDS011;14992;50.844;4.418;2022-07-05T07:53:01;14.10;;;4.60;;
22336;SDS011;14992;50.844;4.418;2022-07-05T07:55:50;17.40;;;4.75;;
22336;SDS011;14992;50.844;4.418;2022-07-05T07:58:45;11.60;;;4.30;;
22336;SDS011;14992;50.844;4.418;2022-07-05T08:01:28;14.40;;;4.45;;
22336;SDS011;14992;50.844;4.418;2022-07-05T08:04:24;12.52;;;4.00;;
22336;SDS011;14992;50.844;4.418;2022-07-05T08:07:05;14.77;;;4.50;;
22336;SDS011;14992;50.844;4.418;2022-07-05T08:10:02;14.95;;;4.53;;
22336;SDS011;14992;50.844;4.418;2022-07-05T08:12:44;17.52;;;5.05;;
22336;SDS011;14992;50.844;4.418;2022-07-05T08:15:39;16.60;;;5.25;;
22336;SDS011;14992;50.844;4.418;2022-07-05T08:18:20;12.45;;;4.82;;
22336;SDS011;14992;50.844;4.418;2022-07-05T08:21:32;19.60;;;4.57;;
22336;SDS011;14992;50.844;4.418;2022-07-05T08:24:13;15.88;;;5.80;;
22336;SDS011;14992;50.844;4.418;2022-07-05T08:27:03;16.25;;;7.25;;
22336;SDS011;14992;50.844;4.418;2022-07-05T08:29:45;17.13;;;4.95;;
22336;SDS011;14992;50.844;4.418;2022-07-05T08:32:34;12.00;;;5.10;;
22336;SDS011;14992;50.844;4.418;2022-07-05T08:35:17;13.65;;;4.25;;
22336;SDS011;14992;50.844;4.418;2022-07-05T08:38:06;14.25;;;4.80;;
22336;SDS011;14992;50.844;4.418;2022-07-05T08:41:01;13.15;;;4.72;;
22336;SDS011;14992;50.844;4.418;2022-07-05T08:43:58;13.73;;;4.88;;
22336;SDS011;14992;50.844;4.418;2022-07-05T08:46:42;14.05;;;4.13;;
22336;SDS011;14992;50.844;4.418;2022-07-05T08:49:40;11.07;;;3.95;;
22336;SDS011;14992;50.844;4.418;2022-07-05T08:52:24;14.55;;;3.88;;
22336;SDS011;14992;50.844;4.418;2022-07-05T08:55:20;12.07;;;3.97;;
22336;SDS011;14992;50.844;4.418;2022-07-05T08:58:02;12.65;;;4.07;;
22336;SDS011;14992;50.844;4.418;2022-07-05T09:00:58;14.38;;;4.97;;
22336;SDS011;14992;50.844;4.418;2022-07-05T09:03:54;14.88;;;5.07;;
22336;SDS011;14992;50.844;4.418;2022-07-05T09:06:38;14.82;;;4.70;;
22336;SDS011;14992;50.844;4.418;2022-07-05T09:09:36;15.90;;;4.35;;
22336;SDS011;14992;50.844;4.418;2022-07-05T09:12:20;13.27;;;3.63;;
22336;SDS011;14992;50.844;4.418;2022-07-05T09:15:16;10.18;;;3.45;;
22336;SDS011;14992;50.844;4.418;2022-07-05T09:17:59;10.77;;;3.70;;
22336;SDS011;14992;50.844;4.418;2022-07-05T09:21:01;9.18;;;3.08;;
22336;SDS011;14992;50.844;4.418;2022-07-05T09:23:52;22.52;;;10.10;;
22336;SDS011;14992;50.844;4.418;2022-07-05T09:26:43;7.85;;;2.08;;
22336;SDS011;14992;50.844;4.418;2022-07-05T09:29:40;14.70;;;3.28;;
22336;SDS011;14992;50.844;4.418;2022-07-05T09:32:36;9.55;;;3.00;;
22336;SDS011;14992;50.844;4.418;2022-07-05T09:35:32;7.90;;;2.65;;
22336;SDS011;14992;50.844;4.418;2022-07-05T09:38:22;10.65;;;2.40;;
22336;SDS011;14992;50.844;4.418;2022-07-05T09:41:18;14.48;;;5.07;;
22336;SDS011;14992;50.844;4.418;2022-07-05T09:43:59;18.27;;;5.28;;
22336;SDS011;14992;50.844;4.418;2022-07-05T09:46:48;10.70;;;3.47;;
22336;SDS011;14992;50.844;4.418;2022-07-05T09:49:29;14.27;;;4.43;;
22336;SDS011;14992;50.844;4.418;2022-07-05T09:52:40;9.75;;;3.20;;
22336;SDS011;14992;50.844;4.418;2022-07-05T09:55:22;9.98;;;3.33;;
22336;SDS011;14992;50.844;4.418;2022-07-05T09:58:12;10.68;;;3.10;;
22336;SDS011;14992;50.844;4.418;2022-07-05T10:00:53;14.57;;;3.58;;
22336;SDS011;14992;50.844;4.418;2022-07-05T10:03:41;9.88;;;2.85;;
22336;SDS011;14992;50.844;4.418;2022-07-05T10:06:41;9.00;;;2.95;;
22336;SDS011;14992;50.844;4.418;2022-07-05T10:09:38;10.98;;;3.38;;
22336;SDS011;14992;50.844;4.418;2022-07-05T10:12:21;13.27;;;4.25;;
22336;SDS011;14992;50.844;4.418;2022-07-05T10:15:17;11.20;;;4.53;;
22336;SDS011;14992;50.844;4.418;2022-07-05T10:18:02;12.63;;;4.30;;
22336;SDS011;14992;50.844;4.418;2022-07-05T10:21:00;14.02;;;4.00;;
22336;SDS011;14992;50.844;4.418;2022-07-05T10:23:43;12.38;;;4.32;;
22336;SDS011;14992;50.844;4.418;2022-07-05T10:26:34;11.60;;;4.10;;
22336;SDS011;14992;50.844;4.418;2022-07-05T10:29:17;11.65;;;3.40;;
22336;SDS011;14992;50.844;4.418;2022-07-05T10:32:07;8.38;;;2.92;;
22336;SDS011;14992;50.844;4.418;2022-07-05T10:34:49;8.40;;;2.78;;
22336;SDS011;14992;50.844;4.418;2022-07-05T10:37:39;11.93;;;3.40;;
22336;SDS011;14992;50.844;4.418;2022-07-05T10:40:34;12.35;;;3.60;;
22336;SDS011;14992;50.844;4.418;2022-07-05T10:43:17;11.38;;;3.28;;
22336;SDS011;14992;50.844;4.418;2022-07-05T10:46:10;9.13;;;2.55;;
22336;SDS011;14992;50.844;4.418;2022-07-05T10:49:14;7.00;;;2.60;;
22336;SDS011;14992;50.844;4.418;2022-07-05T10:51:50;11.60;;;2.95;;
22336;SDS011;14992;50.844;4.418;2022-07-05T10:58:24;18.00;;;3.60;;
22336;SDS011;14992;50.844;4.418;2022-07-05T11:04:24;13.13;;;3.25;;
22336;SDS011;14992;50.844;4.418;2022-07-05T11:07:16;12.70;;;3.08;;
22336;SDS011;14992;50.844;4.418;2022-07-05T11:10:17;7.78;;;2.47;;
22336;SDS011;14992;50.844;4.418;2022-07-05T11:16:22;8.05;;;1.95;;
22336;SDS011;14992;50.844;4.418;2022-07-05T11:19:18;7.72;;;1.90;;
22336;SDS011;14992;50.844;4.418;2022-07-05T11:22:00;8.00;;;1.88;;
22336;SDS011;14992;50.844;4.418;2022-07-05T11:24:56;5.70;;;2.05;;
22336;SDS011;14992;50.844;4.418;2022-07-05T11:31:00;8.77;;;2.35;;
22336;SDS011;14992;50.844;4.418;2022-07-05T11:33:42;7.60;;;1.83;;
22336;SDS011;14992;50.844;4.418;2022-07-05T11:36:31;8.02;;;2.17;;
22336;SDS011;14992;50.844;4.418;2022-07-05T11:39:46;6.55;;;1.77;;
22336;SDS011;14992;50.844;4.418;2022-07-05T11:42:47;5.40;;;1.60;;
22336;SDS011;14992;50.844;4.418;2022-07-05T11:45:37;5.63;;;1.50;;
22336;SDS011;14992;50.844;4.418;2022-07-05T11:48:20;6.55;;;1.95;;
22336;SDS011;14992;50.844;4.418;2022-07-05T11:51:13;9.55;;;1.60;;
22336;SDS011;14992;50.844;4.418;2022-07-05T11:54:09;4.05;;;1.40;;
22336;SDS011;14992;50.844;4.418;2022-07-05T11:56:51;7.75;;;1.38;;
22336;SDS011;14992;50.844;4.418;2022-07-05T11:59:47;7.75;;;1.55;;
22336;SDS011;14992;50.844;4.418;2022-07-05T12:02:42;6.68;;;1.67;;
22336;SDS011;14992;50.844;4.418;2022-07-05T12:05:39;12.35;;;2.28;;
22336;SDS011;14992;50.844;4.418;2022-07-05T12:08:21;12.65;;;2.28;;
22336;SDS011;14992;50.844;4.418;2022-07-05T12:11:18;8.50;;;2.20;;
22336;SDS011;14992;50.844;4.418;2022-07-05T12:14:24;8.88;;;2.15;;
22336;SDS011;14992;50.844;4.418;2022-07-05T12:17:12;5.93;;;2.17;;
22336;SDS011;14992;50.844;4.418;2022-07-05T12:20:06;7.82;;;2.50;;
22336;SDS011;14992;50.844;4.418;2022-07-05T12:22:51;7.18;;;2.20;;
22336;SDS011;14992;50.844;4.418;2022-07-05T12:25:40;6.15;;;1.77;;
22336;SDS011;14992;50.844;4.418;2022-07-05T12:28:22;8.15;;;2.30;;
22336;SDS011;14992;50.844;4.418;2022-07-05T12:31:20;9.13;;;2.22;;
22336;SDS011;14992;50.844;4.418;2022-07-05T12:34:15;6.35;;;2.40;;
22336;SDS011;14992;50.844;4.418;2022-07-05T12:37:08;9.70;;;2.83;;
22336;SDS011;14992;50.844;4.418;2022-07-05T12:40:06;13.57;;;2.70;;
22336;SDS011;14992;50.844;4.418;2022-07-05T12:42:59;7.60;;;2.50;;
22336;SDS011;14992;50.844;4.418;2022-07-05T12:45:58;9.32;;;3.47;;
22336;SDS011;14992;50.844;4.418;2022-07-05T12:48:54;9.57;;;2.72;;
22336;SDS011;14992;50.844;4.418;2022-07-05T12:51:35;6.30;;;2.63;;
22336;SDS011;14992;50.844;4.418;2022-07-05T12:54:32;11.23;;;3.13;;
22336;SDS011;14992;50.844;4.418;2022-07-05T12:57:32;11.10;;;3.28;;
22336;SDS011;14992;50.844;4.418;2022-07-05T13:00:46;8.38;;;2.72;;
22336;SDS011;14992;50.844;4.418;2022-07-05T13:03:27;4.30;;;2.15;;
22336;SDS011;14992;50.844;4.418;2022-07-05T13:06:23;7.57;;;2.80;;
22336;SDS011;14992;50.844;4.418;2022-07-05T13:09:04;7.25;;;2.60;;
22336;SDS011;14992;50.844;4.418;2022-07-05T13:12:03;8.68;;;2.80;;
22336;SDS011;14992;50.844;4.418;2022-07-05T13:14:48;7.90;;;2.40;;
22336;SDS011;14992;50.844;4.418;2022-07-05T13:17:37;7.32;;;2.65;;
22336;SDS011;14992;50.844;4.418;2022-07-05T13:20:19;6.72;;;1.98;;
22336;SDS011;14992;50.844;4.418;2022-07-05T13:23:09;9.00;;;2.10;;
22336;SDS011;14992;50.844;4.418;2022-07-05T13:25:50;7.75;;;2.13;;
22336;SDS011;14992;50.844;4.418;2022-07-05T13:28:46;8.77;;;1.98;;
22336;SDS011;14992;50.844;4.418;2022-07-05T13:31:28;9.38;;;2.10;;
22336;SDS011;14992;50.844;4.418;2022-07-05T13:34:24;6.75;;;1.60;;
22336;SDS011;14992;50.844;4.418;2022-07-05T13:37:05;6.40;;;1.73;;
22336;SDS011;14992;50.844;4.418;2022-07-05T13:40:01;6.65;;;1.70;;
22336;SDS011;14992;50.844;4.418;2022-07-05T13:42:42;6.88;;;1.85;;
22336;SDS011;14992;50.844;4.418;2022-07-05T13:45:38;8.48;;;1.60;;
22336;SDS011;14992;50.844;4.418;2022-07-05T13:48:21;8.20;;;1.52;;
22336;SDS011;14992;50.844;4.418;2022-07-05T13:51:16;7.10;;;1.48;;
22336;SDS011;14992;50.844;4.418;2022-07-05T13:54:02;6.18;;;1.50;;
22336;SDS011;14992;50.844;4.418;2022-07-05T13:56:51;6.18;;;1.60;;
22336;SDS011;14992;50.844;4.418;2022-07-05T13:59:32;5.38;;;1.27;;
22336;SDS011;14992;50.844;4.418;2022-07-05T14:02:21;9.38;;;2.20;;
22336;SDS011;14992;50.844;4.418;2022-07-05T14:05:04;7.10;;;1.83;;
22336;SDS011;14992;50.844;4.418;2022-07-05T14:07:53;10.30;;;1.95;;
22336;SDS011;14992;50.844;4.418;2022-07-05T14:10:34;8.43;;;1.40;;
22336;SDS011;14992;50.844;4.418;2022-07-05T14:13:24;6.45;;;1.80;;
22336;SDS011;14992;50.844;4.418;2022-07-05T14:16:07;5.80;;;1.60;;
22336;SDS011;14992;50.844;4.418;2022-07-05T14:19:03;8.15;;;1.55;;
22336;SDS011;14992;50.844;4.418;2022-07-05T14:21:45;5.53;;;1.30;;
22336;SDS011;14992;50.844;4.418;2022-07-05T14:24:41;11.20;;;2.10;;
22336;SDS011;14992;50.844;4.418;2022-07-05T14:27:22;4.47;;;1.00;;
22336;SDS011;14992;50.844;4.418;2022-07-05T14:30:11;10.75;;;1.88;;
22336;SDS011;14992;50.844;4.418;2022-07-05T14:32:53;10.10;;;1.63;;
22336;SDS011;14992;50.844;4.418;2022-07-05T14:35:42;3.95;;;1.67;;
22336;SDS011;14992;50.844;4.418;2022-07-05T14:38:32;6.63;;;1.58;;
22336;SDS011;14992;50.844;4.418;2022-07-05T14:41:28;9.40;;;1.90;;
22336;SDS011;14992;50.844;4.418;2022-07-05T14:44:23;5.80;;;1.48;;
22336;SDS011;14992;50.844;4.418;2022-07-05T14:47:04;8.25;;;2.25;;
22336;SDS011;14992;50.844;4.418;2022-07-05T14:50:00;8.07;;;2.17;;
22336;SDS011;14992;50.844;4.418;2022-07-05T14:52:41;5.78;;;1.30;;
22336;SDS011;14992;50.844;4.418;2022-07-05T14:55:38;5.75;;;1.42;;
22336;SDS011;14992;50.844;4.418;2022-07-05T14:58:22;4.78;;;1.35;;
22336;SDS011;14992;50.844;4.418;2022-07-05T15:01:18;16.23;;;1.77;;
22336;SDS011;14992;50.844;4.418;2022-07-05T15:03:59;13.35;;;2.80;;
22336;SDS011;14992;50.844;4.418;2022-07-05T15:06:48;7.65;;;1.58;;
22336;SDS011;14992;50.844;4.418;2022-07-05T15:09:29;7.20;;;1.23;;
22336;SDS011;14992;50.844;4.418;2022-07-05T15:12:19;6.03;;;1.60;;
22336;SDS011;14992;50.844;4.418;2022-07-05T15:15:01;3.97;;;1.20;;
22336;SDS011;14992;50.844;4.418;2022-07-05T15:17:50;7.88;;;1.30;;
22336;SDS011;14992;50.844;4.418;2022-07-05T15:20:31;5.43;;;1.55;;
22336;SDS011;14992;50.844;4.418;2022-07-05T15:23:20;10.32;;;1.42;;
22336;SDS011;14992;50.844;4.418;2022-07-05T15:26:02;5.60;;;1.00;;
22336;SDS011;14992;50.844;4.418;2022-07-05T15:29:01;4.00;;;1.38;;
22336;SDS011;14992;50.844;4.418;2022-07-05T15:31:44;4.90;;;1.65;;
22336;SDS011;14992;50.844;4.418;2022-07-05T15:34:39;3.05;;;1.15;;
22336;SDS011;14992;50.844;4.418;2022-07-05T15:37:20;4.10;;;1.30;;
22336;SDS011;14992;50.844;4.418;2022-07-05T15:40:16;5.10;;;1.10;;
22336;SDS011;14992;50.844;4.418;2022-07-05T15:42:58;3.92;;;1.08;;
22336;SDS011;14992;50.844;4.418;2022-07-05T15:45:58;7.00;;;1.48;;
22336;SDS011;14992;50.844;4.418;2022-07-05T15:48:40;6.20;;;1.20;;
22336;SDS011;14992;50.844;4.418;2022-07-05T15:51:29;4.43;;;1.40;;
22336;SDS011;14992;50.844;4.418;2022-07-05T15:54:10;5.80;;;1.30;;
22336;SDS011;14992;50.844;4.418;2022-07-05T15:56:59;4.20;;;1.20;;
22336;SDS011;14992;50.844;4.418;2022-07-05T15:59:40;4.15;;;1.20;;
22336;SDS011;14992;50.844;4.418;2022-07-05T16:02:30;7.85;;;1.27;;
22336;SDS011;14992;50.844;4.418;2022-07-05T16:05:15;3.40;;;1.08;;
22336;SDS011;14992;50.844;4.418;2022-07-05T16:08:03;6.03;;;1.33;;
22336;SDS011;14992;50.844;4.418;2022-07-05T16:10:54;4.63;;;1.17;;
22336;SDS011;14992;50.844;4.418;2022-07-05T16:13:50;5.88;;;1.40;;
22336;SDS011;14992;50.844;4.418;2022-07-05T16:16:31;2.45;;;0.90;;
22336;SDS011;14992;50.844;4.418;2022-07-05T16:19:28;7.40;;;1.08;;
22336;SDS011;14992;50.844;4.418;2022-07-05T16:22:10;8.57;;;2.00;;
22336;SDS011;14992;50.844;4.418;2022-07-05T16:25:05;2.95;;;1.10;;
22336;SDS011;14992;50.844;4.418;2022-07-05T16:27:47;5.32;;;1.10;;
22336;SDS011;14992;50.844;4.418;2022-07-05T16:30:42;7.95;;;1.10;;
22336;SDS011;14992;50.844;4.418;2022-07-05T16:33:23;6.45;;;1.10;;
22336;SDS011;14992;50.844;4.418;2022-07-05T16:36:20;4.32;;;1.10;;
22336;SDS011;14992;50.844;4.418;2022-07-05T16:39:09;5.35;;;1.10;;
22336;SDS011;14992;50.844;4.418;2022-07-05T16:42:04;6.32;;;1.25;;
22336;SDS011;14992;50.844;4.418;2022-07-05T16:44:53;9.85;;;1.50;;
22336;SDS011;14992;50.844;4.418;2022-07-05T16:47:35;5.07;;;0.90;;
22336;SDS011;14992;50.844;4.418;2022-07-05T16:50:31;4.72;;;1.40;;
22336;SDS011;14992;50.844;4.418;2022-07-05T16:53:18;5.53;;;1.17;;
22336;SDS011;14992;50.844;4.418;2022-07-05T16:56:13;5.18;;;1.33;;
22336;SDS011;14992;50.844;4.418;2022-07-05T16:59:09;4.47;;;1.00;;
22336;SDS011;14992;50.844;4.418;2022-07-05T17:01:50;3.97;;;1.25;;
22336;SDS011;14992;50.844;4.418;2022-07-05T17:04:48;4.00;;;1.15;;
22336;SDS011;14992;50.844;4.418;2022-07-05T17:07:29;7.40;;;1.20;;
22336;SDS011;14992;50.844;4.418;2022-07-05T17:10:25;8.32;;;1.40;;
22336;SDS011;14992;50.844;4.418;2022-07-05T17:13:15;7.38;;;1.50;;
22336;SDS011;14992;50.844;4.418;2022-07-05T17:16:10;4.18;;;1.20;;